createdAt,value
2017-08-23T00:02:29.659Z,101499.39
2017-08-23T00:07:59.215Z,101496.91
2017-08-23T00:10:30.653Z,101500.94
2017-08-23T00:13:03.580Z,101497.88
2017-08-23T00:15:34.186Z,101493.25
2017-08-23T00:18:04.336Z,101496.31
2017-08-23T00:20:33.236Z,101496.53
2017-08-23T00:23:05.276Z,101495.28
2017-08-23T00:25:34.189Z,101491.16
2017-08-23T00:28:02.847Z,101489.94
2017-08-23T00:30:31.602Z,101498.14
2017-08-23T00:33:03.884Z,101497.44
2017-08-23T00:35:32.875Z,101490.23
2017-08-23T00:38:01.628Z,101494.02
2017-08-23T00:40:30.334Z,101501.13
2017-08-23T00:43:01.680Z,101499.84
2017-08-23T00:45:31.017Z,101499.55
2017-08-23T00:47:59.829Z,101506.16
2017-08-23T00:50:28.797Z,101500.98
2017-08-23T00:52:57.747Z,101504.62
2017-08-23T00:55:26.250Z,101505.03
2017-08-23T00:57:55.069Z,101506.35
2017-08-23T01:00:24.477Z,101503.91
2017-08-23T01:02:54.030Z,101504.77
2017-08-23T01:05:23.112Z,101506.27
2017-08-23T01:07:51.784Z,101498.11
2017-08-23T01:10:20.822Z,101499.94
2017-08-23T01:12:49.923Z,101498.74
2017-08-23T01:15:18.700Z,101497.14
2017-08-23T01:17:47.487Z,101499.08
2017-08-23T01:20:16.226Z,101493.52
2017-08-23T01:22:45.290Z,101491.37
2017-08-23T01:25:14.510Z,101496.12
2017-08-23T01:27:44.384Z,101492.23
2017-08-23T01:30:12.881Z,101488.86
2017-08-23T01:32:42.148Z,101497.59
2017-08-23T01:35:10.950Z,101490.78
2017-08-23T01:37:39.943Z,101489.28
2017-08-23T01:40:08.841Z,101490.87
2017-08-23T01:42:37.663Z,101490.45
2017-08-23T01:45:06.441Z,101493.73
2017-08-23T01:47:34.980Z,101492.69
2017-08-23T01:50:03.719Z,101492.57
2017-08-23T01:52:32.503Z,101488.72
2017-08-23T01:55:02.345Z,101490.84
2017-08-23T01:57:31.164Z,101484.42
2017-08-23T02:00:00.028Z,101479.42
2017-08-23T02:02:28.735Z,101483.81
2017-08-23T02:04:58.436Z,101481.28
2017-08-23T02:07:27.782Z,101473.22
2017-08-23T02:09:56.579Z,101477.03
2017-08-23T02:12:25.254Z,101483.07
2017-08-23T02:14:53.916Z,101485.78
2017-08-23T02:17:22.564Z,101489.22
2017-08-23T02:19:52.199Z,101489.39
2017-08-23T02:22:21.013Z,101493.73
2017-08-23T02:24:50.311Z,101490.31
2017-08-23T02:27:19.341Z,101491.69
2017-08-23T02:29:48.786Z,101486.55
2017-08-23T02:32:18.026Z,101485.27
2017-08-23T02:34:46.713Z,101478.41
2017-08-23T02:37:15.494Z,101481.00
2017-08-23T02:39:44.271Z,101475.62
2017-08-23T02:42:13.323Z,101477.13
2017-08-23T02:44:42.322Z,101474.39
2017-08-23T02:47:11.562Z,101470.66
2017-08-23T02:49:40.277Z,101471.52
2017-08-23T02:52:10.786Z,101468.89
2017-08-23T02:54:39.834Z,101474.56
2017-08-23T02:57:08.711Z,101471.64
2017-08-23T02:59:37.722Z,101469.12
2017-08-23T03:02:06.420Z,101472.14
2017-08-23T03:04:35.595Z,101467.57
2017-08-23T03:07:05.833Z,101466.39
2017-08-23T03:09:34.389Z,101467.41
2017-08-23T03:12:03.229Z,101470.84
2017-08-23T03:14:32.096Z,101472.62
2017-08-23T03:17:00.923Z,101468.27
2017-08-23T03:19:29.591Z,101466.51
2017-08-23T03:21:58.837Z,101471.17
2017-08-23T03:24:28.318Z,101468.60
2017-08-23T03:26:57.491Z,101473.56
2017-08-23T03:29:26.276Z,101469.44
2017-08-23T03:31:55.075Z,101461.09
2017-08-23T03:34:24.680Z,101462.74
2017-08-23T03:36:53.181Z,101465.25
2017-08-23T03:39:21.929Z,101470.27
2017-08-23T03:41:50.610Z,101468.46
2017-08-23T03:44:19.670Z,101469.72
2017-08-23T03:46:48.448Z,101472.76
2017-08-23T03:49:17.294Z,101474.37
2017-08-23T03:51:46.151Z,101465.95
2017-08-23T03:54:14.960Z,101473.26
2017-08-23T03:56:43.831Z,101472.87
2017-08-23T03:59:12.443Z,101468.77
2017-08-23T04:01:41.309Z,101469.97
2017-08-23T04:04:10.538Z,101476.77
2017-08-23T04:06:39.422Z,101479.05
2017-08-23T04:09:08.250Z,101478.58
2017-08-23T04:11:37.103Z,101475.13
2017-08-23T04:14:09.087Z,101475.28
2017-08-23T04:16:39.979Z,101472.25
2017-08-23T04:19:08.957Z,101474.09
2017-08-23T04:21:38.279Z,101475.17
2017-08-23T04:24:07.292Z,101472.17
2017-08-23T04:26:36.055Z,101475.46
2017-08-23T04:29:04.911Z,101475.18
2017-08-23T04:31:33.827Z,101479.39
2017-08-23T04:34:02.752Z,101475.57
2017-08-23T04:36:31.542Z,101480.26
2017-08-23T04:39:01.185Z,101472.25
2017-08-23T04:41:29.971Z,101472.98
2017-08-23T04:43:59.104Z,101474.43
2017-08-23T04:46:28.116Z,101477.89
2017-08-23T04:48:56.934Z,101478.92
2017-08-23T04:51:26.678Z,101476.72
2017-08-23T04:53:55.393Z,101484.06
2017-08-23T04:56:24.766Z,101479.12
2017-08-23T04:58:53.575Z,101473.27
2017-08-23T05:01:22.636Z,101479.27
2017-08-23T05:03:51.453Z,101481.85
2017-08-23T05:06:20.401Z,101485.59
2017-08-23T05:08:49.314Z,101488.45
2017-08-23T05:11:18.188Z,101484.09
2017-08-23T05:13:46.945Z,101483.23
2017-08-23T05:16:15.722Z,101484.12
2017-08-23T05:18:44.545Z,101486.85
2017-08-23T05:21:13.342Z,101485.84
2017-08-23T05:23:42.894Z,101484.00
2017-08-23T05:26:11.845Z,101487.34
2017-08-23T05:28:41.402Z,101487.73
2017-08-23T05:31:10.297Z,101486.75
2017-08-23T05:33:39.017Z,101490.55
2017-08-23T05:36:09.320Z,101498.11
2017-08-23T05:38:38.237Z,101492.47
2017-08-23T05:41:07.106Z,101486.23
2017-08-23T05:43:36.108Z,101489.58
2017-08-23T05:46:05.021Z,101488.56
2017-08-23T05:48:33.829Z,101487.97
2017-08-23T05:51:02.814Z,101489.80
2017-08-23T05:53:31.805Z,101486.23
2017-08-23T05:56:00.727Z,101483.88
2017-08-23T05:58:29.697Z,101481.90
2017-08-23T06:00:58.627Z,101481.86
2017-08-23T06:03:28.146Z,101483.20
2017-08-23T06:05:56.953Z,101486.87
2017-08-23T06:08:25.878Z,101481.63
2017-08-23T06:10:54.407Z,101487.94
2017-08-23T06:13:23.242Z,101485.23
2017-08-23T06:15:52.165Z,101485.70
2017-08-23T06:18:21.242Z,101478.98
2017-08-23T06:20:50.085Z,101482.09
2017-08-23T06:23:18.929Z,101483.45
2017-08-23T06:25:48.680Z,101486.30
2017-08-23T06:28:17.454Z,101486.11
2017-08-23T06:30:46.255Z,101492.09
2017-08-23T06:33:14.946Z,101497.36
2017-08-23T06:35:43.352Z,101489.41
2017-08-23T06:38:13.188Z,101491.32
2017-08-23T06:40:42.816Z,101479.54
2017-08-23T06:43:11.692Z,101485.81
2017-08-23T06:45:40.498Z,101477.08
2017-08-23T06:48:10.052Z,101481.60
2017-08-23T06:50:38.897Z,101481.43
2017-08-23T06:53:07.638Z,101482.55
2017-08-23T06:55:37.293Z,101480.98
2017-08-23T06:58:06.153Z,101477.89
2017-08-23T07:00:34.884Z,101476.70
2017-08-23T07:03:06.277Z,101485.50
2017-08-23T07:05:35.209Z,101482.64
2017-08-23T07:08:05.181Z,101485.49
2017-08-23T07:10:33.882Z,101486.08
2017-08-23T07:13:04.668Z,101488.75
2017-08-23T07:15:33.499Z,101485.13
2017-08-23T07:18:02.410Z,101488.39
2017-08-23T07:20:32.090Z,101483.51
2017-08-23T07:23:04.645Z,101483.63
2017-08-23T07:25:33.499Z,101479.52
2017-08-23T07:28:03.087Z,101487.02
2017-08-23T07:30:32.885Z,101489.72
2017-08-23T07:33:03.748Z,101485.24
2017-08-23T07:35:32.605Z,101484.00
2017-08-23T07:38:01.620Z,101489.84
2017-08-23T07:40:30.411Z,101489.47
2017-08-23T07:43:02.172Z,101489.11
2017-08-23T07:45:32.253Z,101491.80
2017-08-23T07:48:01.239Z,101488.45
2017-08-23T07:50:30.221Z,101493.76
2017-08-23T07:53:01.783Z,101487.83
2017-08-23T07:55:30.724Z,101487.97
2017-08-23T07:57:59.693Z,101488.03
2017-08-23T08:00:28.797Z,101487.25
2017-08-23T08:02:57.748Z,101493.69
2017-08-23T08:05:26.639Z,101491.61
2017-08-23T08:07:55.926Z,101491.16
2017-08-23T08:10:24.909Z,101492.50
2017-08-23T08:12:53.870Z,101490.38
2017-08-23T08:15:22.882Z,101490.34
2017-08-23T08:17:51.649Z,101496.76
2017-08-23T08:20:20.711Z,101495.97
2017-08-23T08:22:49.619Z,101496.36
2017-08-23T08:25:18.619Z,101503.11
2017-08-23T08:27:47.466Z,101503.09
2017-08-23T08:30:16.426Z,101506.03
2017-08-23T08:32:45.513Z,101500.84
2017-08-23T08:35:14.554Z,101499.84
2017-08-23T08:37:43.595Z,101500.14
2017-08-23T08:40:12.814Z,101495.31
2017-08-23T08:42:41.959Z,101491.22
2017-08-23T08:45:11.957Z,101487.98
2017-08-23T08:47:41.154Z,101490.39
2017-08-23T08:50:10.220Z,101485.52
2017-08-23T08:52:39.515Z,101484.55
2017-08-23T08:55:08.536Z,101486.44
2017-08-23T08:57:37.713Z,101487.11
2017-08-23T09:00:06.829Z,101482.14
2017-08-23T09:02:35.953Z,101490.84
2017-08-23T09:05:05.045Z,101484.66
2017-08-23T09:07:34.113Z,101487.44
2017-08-23T09:10:03.330Z,101487.28
2017-08-23T09:12:32.494Z,101483.11
2017-08-23T09:15:01.776Z,101484.03
2017-08-23T09:17:30.725Z,101479.38
2017-08-23T09:19:59.756Z,101479.23
2017-08-23T09:22:28.927Z,101479.55
2017-08-23T09:24:58.132Z,101482.04
2017-08-23T09:27:27.309Z,101482.66
2017-08-23T09:29:56.625Z,101483.63
2017-08-23T09:32:25.662Z,101475.51
2017-08-23T11:46:30.608Z,101408.34
2017-08-23T11:57:23.095Z,101401.24
2017-08-23T12:00:24.053Z,101401.64
2017-08-23T12:45:54.751Z,101365.21
2017-08-23T12:51:13.544Z,101363.86
2017-08-23T12:53:56.628Z,101369.66
2017-08-23T13:03:03.642Z,101355.70
2017-08-23T13:05:40.872Z,101349.58
2017-08-23T13:08:16.340Z,101357.67
2017-08-23T13:11:02.752Z,101353.66
2017-08-23T13:19:21.260Z,101350.50
2017-08-23T13:21:56.146Z,101355.16
2017-08-23T13:24:29.474Z,101349.22
2017-08-23T13:30:04.565Z,101352.36
2017-08-23T13:41:28.295Z,101358.00
2017-08-23T13:44:07.095Z,101349.55
2017-08-23T13:49:22.162Z,101348.30
2017-08-23T13:54:43.086Z,101339.33
2017-08-23T14:00:13.587Z,101332.41
2017-08-23T14:02:49.882Z,101323.41
2017-08-23T14:08:16.631Z,101322.95
2017-08-23T14:19:46.590Z,101312.48
2017-08-23T14:22:37.748Z,101311.45
2017-08-23T14:25:16.886Z,101298.87
2017-08-23T15:00:22.099Z,101282.56
2017-08-23T15:11:43.784Z,101278.78
2017-08-23T15:16:55.850Z,101276.38
2017-08-23T15:25:10.139Z,101258.67
2017-08-23T15:27:38.835Z,101251.16
2017-08-23T15:30:07.589Z,101247.14
2017-08-23T15:32:37.064Z,101243.58
2017-08-23T15:35:05.783Z,101240.63
2017-08-23T15:37:34.498Z,101243.42
2017-08-23T15:40:02.931Z,101242.08
2017-08-23T15:42:31.637Z,101243.98
